Lamar, Pennsylvania
Current Conditions -  °F | °C
As of 6:53 AM on Tuesday 27 Jan 2015 (Local Time) from KUNV Reporting Station
Light Snow Light Snow  
Wind Chill:   Ceiling: 3000
Heat Index: 19°   Visibility: 4mi
Dew Point: 16°   Wind: 8mph
Humidity: 86%   Direction: 360°N
Pressure: 29.81"   Gusts: NA
Location:  41.02°N, 77.53°W
Report Text: KUNV 271153Z 36007KT 4SM -SN BR BKN030 OVC036 M07/M09 A2981
Loading
Personal Weather Stations






























Interactive Weather Map New forecast layout! Learn more

10-Day Weather Forecast

Advertisements
Track Severe Weather on mobile